West Branch, Iowa
Current Conditions -  °F | °C
As of 7:52 AM on Wednesday 28 Jan 2015 (Local Time) from KIOW Reporting Station
Haze Haze  
Wind Chill: 18°   Ceiling: Unl
Heat Index: 28°   Visibility: 5mi
Dew Point: 25°   Wind: 12mph
Humidity: 88%   Direction: 130°SE
Pressure: 30.15"   Gusts: NA
Location:  41.67°N, 91.35°W
Report Text: KIOW 281352Z AUTO 13010KT 5SM BR CLR M02/M04 A3015 RMK AO2 SLP218 T10221039
Loading
Personal Weather Stations






























Interactive Weather Map New forecast layout! Learn more

10-Day Weather Forecast

Advertisements
Track Severe Weather on mobile